sensor_id;sensor_type;location;lat;lon;timestamp;temperature;humidity
15160;DHT22;7680;48.800;9.680;2022-08-19T00:00:24;21.00;99.90
15160;DHT22;7680;48.800;9.680;2022-08-19T00:02:59;21.00;99.90
15160;DHT22;7680;48.800;9.680;2022-08-19T00:05:32;20.90;99.90
15160;DHT22;7680;48.800;9.680;2022-08-19T00:08:07;20.90;99.90
15160;DHT22;7680;48.800;9.680;2022-08-19T00:10:40;20.90;99.90
15160;DHT22;7680;48.800;9.680;2022-08-19T00:13:13;20.90;99.90
15160;DHT22;7680;48.800;9.680;2022-08-19T00:15:47;20.80;99.90
15160;DHT22;7680;48.800;9.680;2022-08-19T00:18:20;20.80;99.90
15160;DHT22;7680;48.800;9.680;2022-08-19T00:20:53;20.80;99.90
15160;DHT22;7680;48.800;9.680;2022-08-19T00:23:28;20.70;99.90
15160;DHT22;7680;48.800;9.680;2022-08-19T00:26:02;20.70;99.90
15160;DHT22;7680;48.800;9.680;2022-08-19T00:28:36;20.60;99.90
15160;DHT22;7680;48.800;9.680;2022-08-19T00:31:10;20.60;99.90
15160;DHT22;7680;48.800;9.680;2022-08-19T00:33:43;20.60;99.90
15160;DHT22;7680;48.800;9.680;2022-08-19T00:36:19;20.60;99.90
15160;DHT22;7680;48.800;9.680;2022-08-19T00:38:53;20.60;99.90
15160;DHT22;7680;48.800;9.680;2022-08-19T00:41:27;20.60;99.90
15160;DHT22;7680;48.800;9.680;2022-08-19T00:44:03;20.50;99.90
15160;DHT22;7680;48.800;9.680;2022-08-19T00:46:39;20.60;99.90
15160;DHT22;7680;48.800;9.680;2022-08-19T00:49:16;20.60;99.90
15160;DHT22;7680;48.800;9.680;2022-08-19T00:51:56;20.60;99.90
15160;DHT22;7680;48.800;9.680;2022-08-19T00:54:33;20.50;99.90
15160;DHT22;7680;48.800;9.680;2022-08-19T00:57:09;20.50;99.90
15160;DHT22;7680;48.800;9.680;2022-08-19T00:59:47;20.50;99.90
15160;DHT22;7680;48.800;9.680;2022-08-19T01:02:33;20.60;99.90
15160;DHT22;7680;48.800;9.680;2022-08-19T01:05:09;20.50;99.90
15160;DHT22;7680;48.800;9.680;2022-08-19T01:07:44;20.50;99.90
15160;DHT22;7680;48.800;9.680;2022-08-19T01:10:21;20.50;99.90
15160;DHT22;7680;48.800;9.680;2022-08-19T01:12:58;20.60;99.90
15160;DHT22;7680;48.800;9.680;2022-08-19T01:15:35;20.50;99.90
15160;DHT22;7680;48.800;9.680;2022-08-19T01:18:15;20.50;99.90
15160;DHT22;7680;48.800;9.680;2022-08-19T01:20:51;20.50;99.90
15160;DHT22;7680;48.800;9.680;2022-08-19T01:23:26;20.50;99.90
15160;DHT22;7680;48.800;9.680;2022-08-19T01:26:16;20.50;99.90
15160;DHT22;7680;48.800;9.680;2022-08-19T01:28:56;20.40;99.90
15160;DHT22;7680;48.800;9.680;2022-08-19T01:31:32;20.50;99.90
15160;DHT22;7680;48.800;9.680;2022-08-19T01:34:06;20.40;99.90
15160;DHT22;7680;48.800;9.680;2022-08-19T01:36:42;20.40;99.90
15160;DHT22;7680;48.800;9.680;2022-08-19T01:39:20;20.40;99.90
15160;DHT22;7680;48.800;9.680;2022-08-19T01:41:54;20.40;99.90
15160;DHT22;7680;48.800;9.680;2022-08-19T01:44:28;20.40;99.90
15160;DHT22;7680;48.800;9.680;2022-08-19T01:47:01;20.40;99.90
15160;DHT22;7680;48.800;9.680;2022-08-19T01:49:35;20.30;99.90
15160;DHT22;7680;48.800;9.680;2022-08-19T01:52:09;20.20;99.90
15160;DHT22;7680;48.800;9.680;2022-08-19T01:54:43;20.30;99.90
15160;DHT22;7680;48.800;9.680;2022-08-19T01:57:17;20.20;99.90
15160;DHT22;7680;48.800;9.680;2022-08-19T01:59:50;20.20;99.90
15160;DHT22;7680;48.800;9.680;2022-08-19T02:02:23;20.20;99.90
15160;DHT22;7680;48.800;9.680;2022-08-19T02:04:56;20.20;99.90
15160;DHT22;7680;48.800;9.680;2022-08-19T02:07:30;20.10;99.90
15160;DHT22;7680;48.800;9.680;2022-08-19T02:10:08;20.10;99.90
15160;DHT22;7680;48.800;9.680;2022-08-19T02:12:47;20.00;99.90
15160;DHT22;7680;48.800;9.680;2022-08-19T02:15:21;20.00;99.90
15160;DHT22;7680;48.800;9.680;2022-08-19T02:17:54;20.10;99.90
15160;DHT22;7680;48.800;9.680;2022-08-19T02:20:27;20.10;99.90
15160;DHT22;7680;48.800;9.680;2022-08-19T02:23:00;20.10;99.90
15160;DHT22;7680;48.800;9.680;2022-08-19T02:25:35;20.10;99.90
15160;DHT22;7680;48.800;9.680;2022-08-19T02:28:08;20.00;99.90
15160;DHT22;7680;48.800;9.680;2022-08-19T02:30:41;19.90;99.90
15160;DHT22;7680;48.800;9.680;2022-08-19T02:33:15;19.90;99.90
15160;DHT22;7680;48.800;9.680;2022-08-19T02:35:48;19.90;99.90
15160;DHT22;7680;48.800;9.680;2022-08-19T02:38:22;19.80;99.90
15160;DHT22;7680;48.800;9.680;2022-08-19T02:41:00;19.80;99.90
15160;DHT22;7680;48.800;9.680;2022-08-19T02:43:34;19.80;99.90
15160;DHT22;7680;48.800;9.680;2022-08-19T02:46:17;19.80;99.90
15160;DHT22;7680;48.800;9.680;2022-08-19T02:48:55;19.80;99.90
15160;DHT22;7680;48.800;9.680;2022-08-19T02:51:31;19.90;99.90
15160;DHT22;7680;48.800;9.680;2022-08-19T02:54:07;19.80;99.90
15160;DHT22;7680;48.800;9.680;2022-08-19T02:56:44;19.80;99.90
15160;DHT22;7680;48.800;9.680;2022-08-19T02:59:17;19.80;99.90
15160;DHT22;7680;48.800;9.680;2022-08-19T03:01:53;19.70;99.90
15160;DHT22;7680;48.800;9.680;2022-08-19T03:04:27;19.70;99.90
15160;DHT22;7680;48.800;9.680;2022-08-19T03:07:01;19.70;99.90
15160;DHT22;7680;48.800;9.680;2022-08-19T03:09:42;19.70;99.90
15160;DHT22;7680;48.800;9.680;2022-08-19T03:12:16;19.70;99.90
15160;DHT22;7680;48.800;9.680;2022-08-19T03:14:49;19.70;99.90
15160;DHT22;7680;48.800;9.680;2022-08-19T03:17:24;19.70;99.90
15160;DHT22;7680;48.800;9.680;2022-08-19T03:19:57;19.70;99.90
15160;DHT22;7680;48.800;9.680;2022-08-19T03:22:30;19.70;99.90
15160;DHT22;7680;48.800;9.680;2022-08-19T03:25:04;19.60;99.90
15160;DHT22;7680;48.800;9.680;2022-08-19T03:27:39;19.60;99.90
15160;DHT22;7680;48.800;9.680;2022-08-19T03:30:13;19.60;99.90
15160;DHT22;7680;48.800;9.680;2022-08-19T03:32:53;19.50;99.90
15160;DHT22;7680;48.800;9.680;2022-08-19T03:35:28;19.50;99.90
15160;DHT22;7680;48.800;9.680;2022-08-19T03:38:01;19.50;99.90
15160;DHT22;7680;48.800;9.680;2022-08-19T03:40:36;19.50;99.90
15160;DHT22;7680;48.800;9.680;2022-08-19T03:43:16;19.50;99.90
15160;DHT22;7680;48.800;9.680;2022-08-19T03:45:59;19.50;99.90
15160;DHT22;7680;48.800;9.680;2022-08-19T03:48:34;19.40;99.90
15160;DHT22;7680;48.800;9.680;2022-08-19T03:51:16;19.40;99.90
15160;DHT22;7680;48.800;9.680;2022-08-19T03:54:04;19.40;99.90
15160;DHT22;7680;48.800;9.680;2022-08-19T03:56:39;19.30;99.90
15160;DHT22;7680;48.800;9.680;2022-08-19T03:59:23;19.40;99.90
15160;DHT22;7680;48.800;9.680;2022-08-19T04:02:01;19.30;99.90
15160;DHT22;7680;48.800;9.680;2022-08-19T04:04:36;19.30;99.90
15160;DHT22;7680;48.800;9.680;2022-08-19T04:07:11;19.30;99.90
15160;DHT22;7680;48.800;9.680;2022-08-19T04:09:47;19.30;99.90
15160;DHT22;7680;48.800;9.680;2022-08-19T04:12:22;19.30;99.90
15160;DHT22;7680;48.800;9.680;2022-08-19T04:14:56;19.30;99.90
15160;DHT22;7680;48.800;9.680;2022-08-19T04:17:29;19.30;99.90
15160;DHT22;7680;48.800;9.680;2022-08-19T04:20:03;19.30;99.90
15160;DHT22;7680;48.800;9.680;2022-08-19T04:22:37;19.30;99.90
15160;DHT22;7680;48.800;9.680;2022-08-19T04:25:11;19.30;99.90
15160;DHT22;7680;48.800;9.680;2022-08-19T04:27:44;19.30;99.90
15160;DHT22;7680;48.800;9.680;2022-08-19T04:30:19;19.30;99.90
15160;DHT22;7680;48.800;9.680;2022-08-19T04:32:54;19.30;99.90
15160;DHT22;7680;48.800;9.680;2022-08-19T04:35:27;19.30;99.90
15160;DHT22;7680;48.800;9.680;2022-08-19T04:38:00;19.30;99.90
15160;DHT22;7680;48.800;9.680;2022-08-19T04:40:33;19.30;99.90
15160;DHT22;7680;48.800;9.680;2022-08-19T04:43:24;19.30;99.90
15160;DHT22;7680;48.800;9.680;2022-08-19T04:46:04;19.30;99.90
15160;DHT22;7680;48.800;9.680;2022-08-19T04:48:38;19.30;99.90
15160;DHT22;7680;48.800;9.680;2022-08-19T04:51:19;19.30;99.90
15160;DHT22;7680;48.800;9.680;2022-08-19T04:53:53;19.30;99.90
15160;DHT22;7680;48.800;9.680;2022-08-19T04:56:26;19.30;99.90
15160;DHT22;7680;48.800;9.680;2022-08-19T04:59:00;19.30;99.90
15160;DHT22;7680;48.800;9.680;2022-08-19T05:01:37;19.20;99.90
15160;DHT22;7680;48.800;9.680;2022-08-19T05:04:10;19.20;99.90
15160;DHT22;7680;48.800;9.680;2022-08-19T05:06:44;19.20;99.90
15160;DHT22;7680;48.800;9.680;2022-08-19T05:09:18;19.20;99.90
15160;DHT22;7680;48.800;9.680;2022-08-19T05:11:53;19.20;99.90
15160;DHT22;7680;48.800;9.680;2022-08-19T05:14:26;19.20;99.90
15160;DHT22;7680;48.800;9.680;2022-08-19T05:17:02;19.20;99.90
15160;DHT22;7680;48.800;9.680;2022-08-19T05:19:55;19.20;99.90
15160;DHT22;7680;48.800;9.680;2022-08-19T05:22:47;19.30;99.90
15160;DHT22;7680;48.800;9.680;2022-08-19T05:25:21;19.30;99.90
15160;DHT22;7680;48.800;9.680;2022-08-19T05:27:55;19.40;99.90
15160;DHT22;7680;48.800;9.680;2022-08-19T05:30:28;19.40;99.90
15160;DHT22;7680;48.800;9.680;2022-08-19T05:33:19;19.40;99.90
15160;DHT22;7680;48.800;9.680;2022-08-19T05:35:53;19.40;99.90
15160;DHT22;7680;48.800;9.680;2022-08-19T05:38:27;19.50;99.90
15160;DHT22;7680;48.800;9.680;2022-08-19T05:41:06;19.40;99.90
15160;DHT22;7680;48.800;9.680;2022-08-19T05:43:40;19.40;99.90
15160;DHT22;7680;48.800;9.680;2022-08-19T05:46:17;19.50;99.90
15160;DHT22;7680;48.800;9.680;2022-08-19T05:49:00;19.40;99.90
15160;DHT22;7680;48.800;9.680;2022-08-19T05:51:34;19.40;99.90
15160;DHT22;7680;48.800;9.680;2022-08-19T05:54:09;19.50;99.90
15160;DHT22;7680;48.800;9.680;2022-08-19T05:56:45;19.40;99.90
15160;DHT22;7680;48.800;9.680;2022-08-19T05:59:20;19.40;99.90
15160;DHT22;7680;48.800;9.680;2022-08-19T06:01:55;19.40;99.90
15160;DHT22;7680;48.800;9.680;2022-08-19T06:04:30;19.40;99.90
15160;DHT22;7680;48.800;9.680;2022-08-19T06:07:03;19.40;99.90
15160;DHT22;7680;48.800;9.680;2022-08-19T06:09:43;19.40;99.90
15160;DHT22;7680;48.800;9.680;2022-08-19T06:12:32;19.40;99.90
15160;DHT22;7680;48.800;9.680;2022-08-19T06:15:09;19.40;99.90
15160;DHT22;7680;48.800;9.680;2022-08-19T06:17:43;19.40;99.90
15160;DHT22;7680;48.800;9.680;2022-08-19T06:20:18;19.40;99.90
15160;DHT22;7680;48.800;9.680;2022-08-19T06:23:12;19.40;99.90
15160;DHT22;7680;48.800;9.680;2022-08-19T06:25:47;19.40;99.90
15160;DHT22;7680;48.800;9.680;2022-08-19T06:28:20;19.40;99.90
15160;DHT22;7680;48.800;9.680;2022-08-19T06:30:55;19.30;99.90
15160;DHT22;7680;48.800;9.680;2022-08-19T06:33:28;19.30;99.90
15160;DHT22;7680;48.800;9.680;2022-08-19T06:36:04;19.30;99.90
15160;DHT22;7680;48.800;9.680;2022-08-19T06:38:37;19.30;99.90
15160;DHT22;7680;48.800;9.680;2022-08-19T06:41:10;19.30;99.90
15160;DHT22;7680;48.800;9.680;2022-08-19T06:43:43;19.30;99.90
15160;DHT22;7680;48.800;9.680;2022-08-19T06:46:17;19.30;99.90
15160;DHT22;7680;48.800;9.680;2022-08-19T06:48:51;19.20;99.90
15160;DHT22;7680;48.800;9.680;2022-08-19T06:51:27;19.30;99.90
15160;DHT22;7680;48.800;9.680;2022-08-19T06:54:03;19.30;99.90
15160;DHT22;7680;48.800;9.680;2022-08-19T06:56:50;19.30;99.90
15160;DHT22;7680;48.800;9.680;2022-08-19T06:59:24;19.20;99.90
15160;DHT22;7680;48.800;9.680;2022-08-19T07:02:00;19.20;99.90
15160;DHT22;7680;48.800;9.680;2022-08-19T07:04:37;19.20;99.90
15160;DHT22;7680;48.800;9.680;2022-08-19T07:07:15;19.30;99.90
15160;DHT22;7680;48.800;9.680;2022-08-19T07:09:52;19.30;99.90
15160;DHT22;7680;48.800;9.680;2022-08-19T07:12:32;19.20;99.90
15160;DHT22;7680;48.800;9.680;2022-08-19T07:15:09;19.30;99.90
15160;DHT22;7680;48.800;9.680;2022-08-19T07:17:43;19.30;99.90
15160;DHT22;7680;48.800;9.680;2022-08-19T07:20:20;19.30;99.90
15160;DHT22;7680;48.800;9.680;2022-08-19T07:23:00;19.30;99.90
15160;DHT22;7680;48.800;9.680;2022-08-19T07:25:38;19.30;99.90
15160;DHT22;7680;48.800;9.680;2022-08-19T07:28:11;19.30;99.90
15160;DHT22;7680;48.800;9.680;2022-08-19T07:30:55;19.30;99.90
15160;DHT22;7680;48.800;9.680;2022-08-19T07:33:28;19.30;99.90
15160;DHT22;7680;48.800;9.680;2022-08-19T07:36:05;19.30;99.90
15160;DHT22;7680;48.800;9.680;2022-08-19T07:38:47;19.30;99.90
15160;DHT22;7680;48.800;9.680;2022-08-19T07:41:23;19.30;99.90
15160;DHT22;7680;48.800;9.680;2022-08-19T07:43:58;19.30;99.90
15160;DHT22;7680;48.800;9.680;2022-08-19T07:46:38;19.30;99.90
15160;DHT22;7680;48.800;9.680;2022-08-19T07:49:13;19.30;99.90
15160;DHT22;7680;48.800;9.680;2022-08-19T07:51:53;19.40;99.90
15160;DHT22;7680;48.800;9.680;2022-08-19T07:54:30;19.40;99.90
15160;DHT22;7680;48.800;9.680;2022-08-19T07:57:06;19.40;99.90
15160;DHT22;7680;48.800;9.680;2022-08-19T07:59:39;19.50;99.90
15160;DHT22;7680;48.800;9.680;2022-08-19T08:02:13;19.50;99.90
15160;DHT22;7680;48.800;9.680;2022-08-19T08:04:46;19.50;99.90
15160;DHT22;7680;48.800;9.680;2022-08-19T08:07:36;19.50;99.90
15160;DHT22;7680;48.800;9.680;2022-08-19T08:10:28;19.40;99.90
15160;DHT22;7680;48.800;9.680;2022-08-19T08:13:02;19.40;99.90
15160;DHT22;7680;48.800;9.680;2022-08-19T08:15:40;19.40;99.90
15160;DHT22;7680;48.800;9.680;2022-08-19T08:18:16;19.40;99.90
15160;DHT22;7680;48.800;9.680;2022-08-19T08:20:50;19.40;99.90
15160;DHT22;7680;48.800;9.680;2022-08-19T08:23:23;19.40;99.90
15160;DHT22;7680;48.800;9.680;2022-08-19T08:25:59;19.50;99.90
15160;DHT22;7680;48.800;9.680;2022-08-19T08:28:33;19.40;99.90
15160;DHT22;7680;48.800;9.680;2022-08-19T08:31:06;19.50;99.90
15160;DHT22;7680;48.800;9.680;2022-08-19T08:33:40;19.50;99.90
15160;DHT22;7680;48.800;9.680;2022-08-19T08:36:14;19.50;99.90
15160;DHT22;7680;48.800;9.680;2022-08-19T08:38:47;19.50;99.90
15160;DHT22;7680;48.800;9.680;2022-08-19T08:41:30;19.60;99.90
15160;DHT22;7680;48.800;9.680;2022-08-19T08:44:14;19.50;99.90
15160;DHT22;7680;48.800;9.680;2022-08-19T08:46:55;19.60;99.90
15160;DHT22;7680;48.800;9.680;2022-08-19T08:49:36;19.60;99.90
15160;DHT22;7680;48.800;9.680;2022-08-19T08:52:18;19.60;99.90
15160;DHT22;7680;48.800;9.680;2022-08-19T08:54:57;19.70;99.90
15160;DHT22;7680;48.800;9.680;2022-08-19T08:57:51;19.70;99.90
15160;DHT22;7680;48.800;9.680;2022-08-19T09:00:29;19.70;99.90
15160;DHT22;7680;48.800;9.680;2022-08-19T09:03:11;19.70;99.90
15160;DHT22;7680;48.800;9.680;2022-08-19T09:05:57;19.70;99.90
15160;DHT22;7680;48.800;9.680;2022-08-19T09:08:42;19.70;99.90
15160;DHT22;7680;48.800;9.680;2022-08-19T09:11:29;19.70;99.90
15160;DHT22;7680;48.800;9.680;2022-08-19T09:14:24;19.80;99.90
15160;DHT22;7680;48.800;9.680;2022-08-19T09:17:25;19.80;99.90
15160;DHT22;7680;48.800;9.680;2022-08-19T09:20:06;19.80;99.90
15160;DHT22;7680;48.800;9.680;2022-08-19T09:22:45;19.80;99.90
15160;DHT22;7680;48.800;9.680;2022-08-19T09:25:22;19.80;99.90
15160;DHT22;7680;48.800;9.680;2022-08-19T09:28:01;19.80;99.90
15160;DHT22;7680;48.800;9.680;2022-08-19T09:30:44;19.80;99.90
15160;DHT22;7680;48.800;9.680;2022-08-19T09:33:17;19.80;99.90
15160;DHT22;7680;48.800;9.680;2022-08-19T09:36:01;19.80;99.90
15160;DHT22;7680;48.800;9.680;2022-08-19T09:38:40;19.80;99.90
15160;DHT22;7680;48.800;9.680;2022-08-19T09:41:16;19.80;99.90
15160;DHT22;7680;48.800;9.680;2022-08-19T09:43:53;19.90;99.90
15160;DHT22;7680;48.800;9.680;2022-08-19T09:46:29;19.90;99.90
15160;DHT22;7680;48.800;9.680;2022-08-19T09:49:03;20.00;99.90
15160;DHT22;7680;48.800;9.680;2022-08-19T09:51:37;20.10;99.90
15160;DHT22;7680;48.800;9.680;2022-08-19T09:54:11;20.10;99.90
15160;DHT22;7680;48.800;9.680;2022-08-19T09:56:53;20.20;99.90
15160;DHT22;7680;48.800;9.680;2022-08-19T09:59:27;20.20;99.90
15160;DHT22;7680;48.800;9.680;2022-08-19T10:02:05;20.20;99.90
15160;DHT22;7680;48.800;9.680;2022-08-19T10:04:41;20.20;99.90
15160;DHT22;7680;48.800;9.680;2022-08-19T10:07:32;20.20;99.90
15160;DHT22;7680;48.800;9.680;2022-08-19T10:10:07;20.30;99.90
15160;DHT22;7680;48.800;9.680;2022-08-19T10:12:43;20.40;99.90
15160;DHT22;7680;48.800;9.680;2022-08-19T10:15:19;20.50;99.90
15160;DHT22;7680;48.800;9.680;2022-08-19T10:18:01;20.50;99.90
15160;DHT22;7680;48.800;9.680;2022-08-19T10:20:36;20.70;99.90
15160;DHT22;7680;48.800;9.680;2022-08-19T10:23:09;20.90;99.90
15160;DHT22;7680;48.800;9.680;2022-08-19T10:25:42;21.00;99.90
15160;DHT22;7680;48.800;9.680;2022-08-19T10:28:15;21.10;99.90
15160;DHT22;7680;48.800;9.680;2022-08-19T10:30:50;21.20;99.90
15160;DHT22;7680;48.800;9.680;2022-08-19T10:33:24;21.10;99.90
15160;DHT22;7680;48.800;9.680;2022-08-19T10:36:21;21.10;99.90
15160;DHT22;7680;48.800;9.680;2022-08-19T10:38:57;21.10;99.90
15160;DHT22;7680;48.800;9.680;2022-08-19T10:41:35;21.10;99.90
15160;DHT22;7680;48.800;9.680;2022-08-19T10:44:11;21.10;99.90
15160;DHT22;7680;48.800;9.680;2022-08-19T10:46:44;21.10;99.90
15160;DHT22;7680;48.800;9.680;2022-08-19T10:49:22;21.10;99.90
15160;DHT22;7680;48.800;9.680;2022-08-19T10:51:56;21.00;99.90
15160;DHT22;7680;48.800;9.680;2022-08-19T10:54:51;21.00;99.90
15160;DHT22;7680;48.800;9.680;2022-08-19T10:57:42;21.00;99.90
15160;DHT22;7680;48.800;9.680;2022-08-19T11:00:34;21.00;99.90
15160;DHT22;7680;48.800;9.680;2022-08-19T11:03:08;21.00;99.90
15160;DHT22;7680;48.800;9.680;2022-08-19T11:05:43;21.10;99.90
15160;DHT22;7680;48.800;9.680;2022-08-19T11:08:16;21.10;99.90
15160;DHT22;7680;48.800;9.680;2022-08-19T11:10:54;21.00;99.90
15160;DHT22;7680;48.800;9.680;2022-08-19T11:13:30;20.90;99.90
15160;DHT22;7680;48.800;9.680;2022-08-19T11:16:09;20.90;99.90
15160;DHT22;7680;48.800;9.680;2022-08-19T11:18:46;20.90;99.90
15160;DHT22;7680;48.800;9.680;2022-08-19T11:21:24;20.80;99.90
15160;DHT22;7680;48.800;9.680;2022-08-19T11:24:02;20.70;99.90
15160;DHT22;7680;48.800;9.680;2022-08-19T11:26:39;20.60;99.90
15160;DHT22;7680;48.800;9.680;2022-08-19T11:29:13;20.50;99.90
15160;DHT22;7680;48.800;9.680;2022-08-19T11:31:48;20.50;99.90
15160;DHT22;7680;48.800;9.680;2022-08-19T11:34:25;20.50;99.90
15160;DHT22;7680;48.800;9.680;2022-08-19T11:37:02;20.50;99.90
15160;DHT22;7680;48.800;9.680;2022-08-19T11:39:36;20.30;99.90
15160;DHT22;7680;48.800;9.680;2022-08-19T11:42:10;20.20;99.90
15160;DHT22;7680;48.800;9.680;2022-08-19T11:45:01;20.10;99.90
15160;DHT22;7680;48.800;9.680;2022-08-19T11:47:34;20.00;99.90
15160;DHT22;7680;48.800;9.680;2022-08-19T11:50:08;19.90;99.90
15160;DHT22;7680;48.800;9.680;2022-08-19T11:52:42;19.90;99.90
15160;DHT22;7680;48.800;9.680;2022-08-19T11:55:16;19.80;99.90
15160;DHT22;7680;48.800;9.680;2022-08-19T11:57:51;19.70;99.90
15160;DHT22;7680;48.800;9.680;2022-08-19T12:00:24;19.70;99.90
15160;DHT22;7680;48.800;9.680;2022-08-19T12:02:58;19.60;99.90
15160;DHT22;7680;48.800;9.680;2022-08-19T12:05:31;19.50;99.90
15160;DHT22;7680;48.800;9.680;2022-08-19T12:08:07;19.50;99.90
15160;DHT22;7680;48.800;9.680;2022-08-19T12:10:40;19.50;99.90
15160;DHT22;7680;48.800;9.680;2022-08-19T12:13:14;19.50;99.90
15160;DHT22;7680;48.800;9.680;2022-08-19T12:15:50;19.40;99.90
15160;DHT22;7680;48.800;9.680;2022-08-19T12:18:24;19.40;99.90
15160;DHT22;7680;48.800;9.680;2022-08-19T12:20:58;19.30;99.90
15160;DHT22;7680;48.800;9.680;2022-08-19T12:23:33;19.20;99.90
15160;DHT22;7680;48.800;9.680;2022-08-19T12:26:09;19.10;99.90
15160;DHT22;7680;48.800;9.680;2022-08-19T12:28:43;19.00;99.90
15160;DHT22;7680;48.800;9.680;2022-08-19T12:31:17;19.00;99.90
15160;DHT22;7680;48.800;9.680;2022-08-19T12:33:51;19.00;99.90
15160;DHT22;7680;48.800;9.680;2022-08-19T12:36:25;19.00;99.90
15160;DHT22;7680;48.800;9.680;2022-08-19T12:38:59;19.00;99.90
15160;DHT22;7680;48.800;9.680;2022-08-19T12:41:32;19.00;99.90
15160;DHT22;7680;48.800;9.680;2022-08-19T12:44:13;19.00;99.90
15160;DHT22;7680;48.800;9.680;2022-08-19T12:46:49;19.00;99.90
15160;DHT22;7680;48.800;9.680;2022-08-19T12:49:24;18.90;99.90
15160;DHT22;7680;48.800;9.680;2022-08-19T12:52:17;18.80;99.90
15160;DHT22;7680;48.800;9.680;2022-08-19T12:54:56;18.80;99.90
15160;DHT22;7680;48.800;9.680;2022-08-19T12:57:29;18.90;99.90
15160;DHT22;7680;48.800;9.680;2022-08-19T13:00:07;18.80;99.90
15160;DHT22;7680;48.800;9.680;2022-08-19T13:02:44;18.90;99.90
15160;DHT22;7680;48.800;9.680;2022-08-19T13:05:21;18.90;99.90
15160;DHT22;7680;48.800;9.680;2022-08-19T13:07:56;18.80;99.90
15160;DHT22;7680;48.800;9.680;2022-08-19T13:10:35;18.80;99.90
15160;DHT22;7680;48.800;9.680;2022-08-19T13:13:09;18.70;99.90
15160;DHT22;7680;48.800;9.680;2022-08-19T13:15:43;18.70;99.90
15160;DHT22;7680;48.800;9.680;2022-08-19T13:18:16;18.80;99.90
15160;DHT22;7680;48.800;9.680;2022-08-19T13:20:49;18.70;99.90
15160;DHT22;7680;48.800;9.680;2022-08-19T13:23:23;18.80;99.90
15160;DHT22;7680;48.800;9.680;2022-08-19T13:25:59;18.80;99.90
15160;DHT22;7680;48.800;9.680;2022-08-19T13:28:35;18.80;99.90
15160;DHT22;7680;48.800;9.680;2022-08-19T13:31:27;18.80;99.90
15160;DHT22;7680;48.800;9.680;2022-08-19T13:34:26;18.80;99.90
15160;DHT22;7680;48.800;9.680;2022-08-19T13:37:03;18.80;99.90
15160;DHT22;7680;48.800;9.680;2022-08-19T13:39:36;18.90;99.90
15160;DHT22;7680;48.800;9.680;2022-08-19T13:42:11;18.80;99.90
15160;DHT22;7680;48.800;9.680;2022-08-19T13:44:45;18.80;99.90
15160;DHT22;7680;48.800;9.680;2022-08-19T13:47:19;18.90;99.90
15160;DHT22;7680;48.800;9.680;2022-08-19T13:49:52;18.90;99.90
15160;DHT22;7680;48.800;9.680;2022-08-19T13:52:25;18.90;99.90
15160;DHT22;7680;48.800;9.680;2022-08-19T13:54:59;18.90;99.90
15160;DHT22;7680;48.800;9.680;2022-08-19T13:57:33;18.80;99.90
15160;DHT22;7680;48.800;9.680;2022-08-19T14:00:10;18.80;99.90
15160;DHT22;7680;48.800;9.680;2022-08-19T14:02:46;18.80;99.90
15160;DHT22;7680;48.800;9.680;2022-08-19T14:05:20;18.80;99.90
15160;DHT22;7680;48.800;9.680;2022-08-19T14:07:54;18.80;99.90
15160;DHT22;7680;48.800;9.680;2022-08-19T14:10:28;18.90;99.90
15160;DHT22;7680;48.800;9.680;2022-08-19T14:13:04;18.90;99.90
15160;DHT22;7680;48.800;9.680;2022-08-19T14:15:37;18.90;99.90
15160;DHT22;7680;48.800;9.680;2022-08-19T14:18:11;18.90;99.90
15160;DHT22;7680;48.800;9.680;2022-08-19T14:20:44;19.00;99.90
15160;DHT22;7680;48.800;9.680;2022-08-19T14:23:18;19.00;99.90
15160;DHT22;7680;48.800;9.680;2022-08-19T14:25:51;19.00;99.90
15160;DHT22;7680;48.800;9.680;2022-08-19T14:28:35;19.00;99.90
15160;DHT22;7680;48.800;9.680;2022-08-19T14:31:08;19.10;99.90
15160;DHT22;7680;48.800;9.680;2022-08-19T14:33:42;19.10;99.90
15160;DHT22;7680;48.800;9.680;2022-08-19T14:36:15;19.10;99.90
15160;DHT22;7680;48.800;9.680;2022-08-19T14:38:48;19.10;99.90
15160;DHT22;7680;48.800;9.680;2022-08-19T14:41:23;19.10;99.90
15160;DHT22;7680;48.800;9.680;2022-08-19T14:43:57;19.10;99.90
15160;DHT22;7680;48.800;9.680;2022-08-19T14:46:31;19.20;99.90
15160;DHT22;7680;48.800;9.680;2022-08-19T14:49:05;19.30;99.90
15160;DHT22;7680;48.800;9.680;2022-08-19T14:51:40;19.20;99.90
15160;DHT22;7680;48.800;9.680;2022-08-19T14:54:13;19.20;99.90
15160;DHT22;7680;48.800;9.680;2022-08-19T14:56:47;19.20;99.90
15160;DHT22;7680;48.800;9.680;2022-08-19T14:59:21;19.30;99.90
15160;DHT22;7680;48.800;9.680;2022-08-19T15:01:55;19.30;99.90
15160;DHT22;7680;48.800;9.680;2022-08-19T15:04:28;19.30;99.90
15160;DHT22;7680;48.800;9.680;2022-08-19T15:07:04;19.30;99.90
15160;DHT22;7680;48.800;9.680;2022-08-19T15:09:37;19.40;99.90
15160;DHT22;7680;48.800;9.680;2022-08-19T15:12:11;19.40;99.90
15160;DHT22;7680;48.800;9.680;2022-08-19T15:14:54;19.50;99.90
15160;DHT22;7680;48.800;9.680;2022-08-19T15:17:28;19.50;99.90
15160;DHT22;7680;48.800;9.680;2022-08-19T15:20:19;19.50;99.90
15160;DHT22;7680;48.800;9.680;2022-08-19T15:22:54;19.60;99.90
15160;DHT22;7680;48.800;9.680;2022-08-19T15:25:28;19.60;99.90
15160;DHT22;7680;48.800;9.680;2022-08-19T15:28:01;19.60;99.90
15160;DHT22;7680;48.800;9.680;2022-08-19T15:30:36;19.70;99.90
15160;DHT22;7680;48.800;9.680;2022-08-19T15:33:11;19.70;99.90
15160;DHT22;7680;48.800;9.680;2022-08-19T15:35:47;19.70;99.90
15160;DHT22;7680;48.800;9.680;2022-08-19T15:38:21;19.60;99.90
15160;DHT22;7680;48.800;9.680;2022-08-19T15:40:56;19.60;99.90
15160;DHT22;7680;48.800;9.680;2022-08-19T15:43:51;19.60;99.90
15160;DHT22;7680;48.800;9.680;2022-08-19T15:46:29;19.60;99.90
15160;DHT22;7680;48.800;9.680;2022-08-19T15:49:05;19.70;99.90
15160;DHT22;7680;48.800;9.680;2022-08-19T15:51:40;19.60;99.90
15160;DHT22;7680;48.800;9.680;2022-08-19T15:54:16;19.60;99.90
15160;DHT22;7680;48.800;9.680;2022-08-19T15:56:52;19.70;99.90
15160;DHT22;7680;48.800;9.680;2022-08-19T15:59:42;19.70;99.90
15160;DHT22;7680;48.800;9.680;2022-08-19T16:02:35;19.70;99.90
15160;DHT22;7680;48.800;9.680;2022-08-19T16:05:26;19.60;99.90
15160;DHT22;7680;48.800;9.680;2022-08-19T16:08:19;19.70;99.90
15160;DHT22;7680;48.800;9.680;2022-08-19T16:10:52;19.60;99.90
15160;DHT22;7680;48.800;9.680;2022-08-19T16:13:25;19.60;99.90
15160;DHT22;7680;48.800;9.680;2022-08-19T16:15:58;19.60;99.90
15160;DHT22;7680;48.800;9.680;2022-08-19T16:18:33;19.60;99.90
15160;DHT22;7680;48.800;9.680;2022-08-19T16:21:08;19.60;99.90
15160;DHT22;7680;48.800;9.680;2022-08-19T16:23:42;19.60;99.90
15160;DHT22;7680;48.800;9.680;2022-08-19T16:26:18;19.60;99.90
15160;DHT22;7680;48.800;9.680;2022-08-19T16:28:51;19.50;99.90
15160;DHT22;7680;48.800;9.680;2022-08-19T16:31:25;19.50;99.90
15160;DHT22;7680;48.800;9.680;2022-08-19T16:34:01;19.50;99.90
15160;DHT22;7680;48.800;9.680;2022-08-19T16:36:34;19.30;99.90
15160;DHT22;7680;48.800;9.680;2022-08-19T16:39:08;19.30;99.90
15160;DHT22;7680;48.800;9.680;2022-08-19T16:41:43;19.30;99.90
15160;DHT22;7680;48.800;9.680;2022-08-19T16:44:18;19.30;99.90